createdAt,value
2023-03-20T00:02:27.227Z,95.71
2023-03-20T00:04:55.623Z,94.24
2023-03-20T00:07:23.959Z,95.93
2023-03-20T00:09:52.263Z,100.00
2023-03-20T00:12:26.212Z,97.38
2023-03-20T00:14:54.591Z,96.34
2023-03-20T00:17:23.194Z,100.00
2023-03-20T00:19:53.125Z,100.00
2023-03-20T00:22:22.578Z,100.00
2023-03-20T00:24:50.908Z,100.00
2023-03-20T00:27:19.623Z,100.00
2023-03-20T00:29:48.087Z,100.00
2023-03-20T00:32:16.847Z,100.00
2023-03-20T00:34:45.193Z,100.00
2023-03-20T00:37:14.999Z,100.00
2023-03-20T00:39:43.448Z,89.20
2023-03-20T00:42:22.156Z,100.00
2023-03-20T00:44:54.465Z,100.00
2023-03-20T00:47:25.490Z,98.56
2023-03-20T00:49:55.972Z,96.85
2023-03-20T00:52:26.349Z,97.01
2023-03-20T00:54:54.680Z,96.87
2023-03-20T00:57:27.751Z,93.90
2023-03-20T01:00:01.522Z,93.35
2023-03-20T01:02:31.705Z,93.65
2023-03-20T01:05:00.199Z,93.03
2023-03-20T01:07:29.929Z,93.33
2023-03-20T01:09:58.217Z,92.15
2023-03-20T01:12:26.664Z,92.77
2023-03-20T01:14:58.570Z,88.07
2023-03-20T01:17:29.387Z,94.83
2023-03-20T01:19:57.740Z,93.62
2023-03-20T01:22:26.231Z,92.34
2023-03-20T01:24:55.889Z,92.39
2023-03-20T01:27:24.246Z,91.92
2023-03-20T01:29:52.524Z,97.37
2023-03-20T01:32:21.457Z,92.77
2023-03-20T01:34:49.873Z,85.89
2023-03-20T01:37:27.144Z,91.11
2023-03-20T01:39:58.359Z,95.78
2023-03-20T01:42:26.994Z,93.36
2023-03-20T01:44:55.333Z,92.98
2023-03-20T01:47:26.125Z,87.09
2023-03-20T01:50:23.386Z,94.29
2023-03-20T01:52:56.718Z,93.04
2023-03-20T01:55:27.673Z,92.06
2023-03-20T01:58:00.308Z,92.49
2023-03-20T02:00:28.751Z,91.71
2023-03-20T02:02:57.774Z,95.27
2023-03-20T02:05:26.415Z,93.68
2023-03-20T02:08:09.729Z,93.18
2023-03-20T02:10:40.788Z,91.52
2023-03-20T02:13:11.023Z,92.22
2023-03-20T02:15:57.839Z,88.72
2023-03-20T02:18:26.961Z,94.73
2023-03-20T02:21:47.825Z,89.14
2023-03-20T02:24:57.091Z,93.98
2023-03-20T02:27:35.938Z,93.65
2023-03-20T02:30:53.389Z,84.11
2023-03-20T02:34:19.380Z,84.43
2023-03-20T02:37:24.004Z,94.85
2023-03-20T02:40:10.342Z,87.78
2023-03-20T02:42:48.032Z,100.00
2023-03-20T02:45:23.817Z,100.00
2023-03-20T02:48:01.671Z,99.73
2023-03-20T02:50:37.149Z,94.81
2023-03-20T02:53:19.002Z,91.57
2023-03-20T02:55:56.499Z,91.27
2023-03-20T02:58:29.643Z,91.38
2023-03-20T03:01:04.786Z,91.35
2023-03-20T03:03:39.379Z,90.04
2023-03-20T03:06:13.570Z,92.20
2023-03-20T03:08:49.296Z,91.60
2023-03-20T03:11:18.132Z,93.54
2023-03-20T03:13:51.896Z,92.65
2023-03-20T03:16:27.271Z,94.92
2023-03-20T03:19:07.049Z,92.56
2023-03-20T03:21:38.494Z,88.38
2023-03-20T03:24:37.198Z,90.72
2023-03-20T03:27:18.616Z,90.25
2023-03-20T03:29:54.320Z,90.29
2023-03-20T03:32:34.286Z,89.46
2023-03-20T03:35:06.516Z,90.01
2023-03-20T03:37:49.674Z,88.67
2023-03-20T03:40:29.236Z,87.07
2023-03-20T03:43:02.974Z,88.81
2023-03-20T03:45:36.819Z,92.42
2023-03-20T03:48:12.681Z,91.06
2023-03-20T03:50:48.845Z,90.52
2023-03-20T03:53:23.796Z,89.47
2023-03-20T03:55:59.392Z,96.32
2023-03-20T03:58:32.268Z,89.93
2023-03-20T04:01:03.491Z,90.81
2023-03-20T04:03:39.521Z,91.13
2023-03-20T04:06:12.514Z,93.51
2023-03-20T04:08:42.262Z,91.67
2023-03-20T04:11:17.459Z,89.95
2023-03-20T04:13:47.243Z,89.66
2023-03-20T04:16:17.307Z,89.93
2023-03-20T04:18:47.232Z,90.61
2023-03-20T04:21:16.892Z,94.36
2023-03-20T04:23:45.271Z,92.38
2023-03-20T04:26:15.820Z,87.59
2023-03-20T04:28:44.672Z,92.80
2023-03-20T04:31:14.261Z,92.89
2023-03-20T04:33:42.976Z,91.43
2023-03-20T04:36:11.812Z,90.68
2023-03-20T04:38:40.492Z,90.25
2023-03-20T04:41:09.197Z,86.61
2023-03-20T04:43:39.376Z,89.45
2023-03-20T04:46:08.315Z,92.27
2023-03-20T04:48:36.676Z,91.63
2023-03-20T04:51:05.347Z,90.82
2023-03-20T04:53:33.658Z,90.03
2023-03-20T04:56:02.293Z,91.46
2023-03-20T04:58:30.673Z,84.73
2023-03-20T05:01:00.455Z,90.81
2023-03-20T05:03:28.763Z,92.23
2023-03-20T05:05:57.122Z,100.00
2023-03-20T05:08:26.044Z,98.85
2023-03-20T05:10:54.526Z,100.00
2023-03-20T05:13:22.804Z,92.46
2023-03-20T05:15:51.300Z,100.00
2023-03-20T05:18:20.971Z,96.67
2023-03-20T05:20:50.688Z,94.67
2023-03-20T05:23:19.004Z,95.34
2023-03-20T05:25:47.336Z,96.02
2023-03-20T05:28:15.616Z,94.67
2023-03-20T05:30:43.948Z,98.57
2023-03-20T05:33:12.283Z,94.06
2023-03-20T05:35:42.060Z,86.89
2023-03-20T05:38:10.391Z,98.50
2023-03-20T05:40:38.742Z,100.00
2023-03-20T05:43:07.038Z,100.00
2023-03-20T05:45:35.682Z,99.35
2023-03-20T05:48:04.205Z,97.29
2023-03-20T05:50:32.551Z,94.14
2023-03-20T05:53:02.327Z,94.93
2023-03-20T05:55:30.659Z,93.71
2023-03-20T05:57:58.985Z,93.84
2023-03-20T06:00:27.567Z,90.69
2023-03-20T06:02:56.836Z,88.47
2023-03-20T06:05:25.191Z,90.89
2023-03-20T06:07:53.528Z,87.59
2023-03-20T06:10:23.253Z,90.21
2023-03-20T06:12:51.649Z,96.80
2023-03-20T06:15:19.997Z,96.66
2023-03-20T06:17:48.373Z,93.98
2023-03-20T06:20:17.034Z,91.81
2023-03-20T06:22:46.305Z,94.65
2023-03-20T06:25:15.020Z,92.03
2023-03-20T06:27:44.953Z,94.77
2023-03-20T06:30:14.785Z,94.17
2023-03-20T06:32:43.357Z,91.67
2023-03-20T06:35:13.107Z,92.27
2023-03-20T06:37:42.038Z,90.79
2023-03-20T06:40:12.184Z,88.99
2023-03-20T06:42:40.479Z,89.74
2023-03-20T06:45:12.415Z,88.95
2023-03-20T06:47:40.830Z,86.75
2023-03-20T06:50:10.868Z,90.32
2023-03-20T06:52:39.855Z,88.70
2023-03-20T06:55:09.855Z,88.15
2023-03-20T06:57:38.316Z,88.98
2023-03-20T07:00:10.454Z,86.35
2023-03-20T07:02:38.814Z,86.00
2023-03-20T07:05:08.560Z,85.70
2023-03-20T07:07:37.135Z,88.45
2023-03-20T07:10:07.284Z,96.81
2023-03-20T07:12:35.556Z,100.00
2023-03-20T07:15:04.238Z,92.12
2023-03-20T07:17:34.318Z,87.58
2023-03-20T07:20:03.187Z,94.53
2023-03-20T07:22:32.530Z,95.55
2023-03-20T07:25:01.296Z,96.80
2023-03-20T07:27:29.949Z,95.11
2023-03-20T07:29:58.586Z,89.54
2023-03-20T07:32:27.370Z,93.91
2023-03-20T07:34:57.337Z,88.36
2023-03-20T07:37:25.938Z,90.18
2023-03-20T07:39:54.504Z,89.07
2023-03-20T07:42:23.045Z,92.92
2023-03-20T07:44:51.682Z,97.15
2023-03-20T07:47:20.270Z,90.44
2023-03-20T07:49:49.137Z,92.82
2023-03-20T07:52:19.077Z,91.41
2023-03-20T07:54:47.714Z,86.49
2023-03-20T07:57:17.129Z,100.00
2023-03-20T07:59:45.899Z,95.45
2023-03-20T08:02:17.470Z,90.56
2023-03-20T08:04:46.456Z,85.22
2023-03-20T08:07:15.313Z,89.29
2023-03-20T08:09:45.447Z,89.27
2023-03-20T08:12:13.990Z,91.17
2023-03-20T08:14:43.816Z,100.00
2023-03-20T08:17:15.457Z,89.31
2023-03-20T08:19:44.553Z,82.42
2023-03-20T08:22:13.188Z,87.18
2023-03-20T08:24:41.808Z,78.07
2023-03-20T08:27:11.785Z,86.52
2023-03-20T08:29:40.456Z,85.18
2023-03-20T08:32:08.997Z,83.92
2023-03-20T08:34:37.793Z,94.67
2023-03-20T08:37:08.010Z,79.09
2023-03-20T08:39:36.855Z,92.99
2023-03-20T08:42:05.694Z,86.76
2023-03-20T08:44:35.853Z,86.22
2023-03-20T08:47:05.570Z,99.55
2023-03-20T08:49:34.294Z,91.88
2023-03-20T08:52:02.841Z,95.33
2023-03-20T08:54:31.880Z,87.29
2023-03-20T08:57:00.402Z,92.67
2023-03-20T08:59:29.147Z,89.55
2023-03-20T09:01:59.160Z,87.39
2023-03-20T09:04:28.078Z,85.39
2023-03-20T09:06:57.079Z,85.77
2023-03-20T09:09:29.685Z,80.75
2023-03-20T09:11:58.572Z,86.01
2023-03-20T09:14:28.386Z,82.35
2023-03-20T09:16:58.407Z,80.31
2023-03-20T09:19:27.129Z,82.64
2023-03-20T09:21:55.860Z,88.23
2023-03-20T09:24:26.221Z,82.07
2023-03-20T09:26:54.785Z,79.14
2023-03-20T09:29:23.417Z,79.78
2023-03-20T09:31:53.869Z,78.81
2023-03-20T09:34:24.332Z,86.44
2023-03-20T09:36:53.073Z,82.95
2023-03-20T09:39:21.624Z,80.09
2023-03-20T09:41:57.335Z,73.72
2023-03-20T09:44:45.680Z,82.51
2023-03-20T09:47:23.592Z,83.20
2023-03-20T09:50:09.526Z,88.66
2023-03-20T09:52:42.124Z,81.32
2023-03-20T09:55:16.930Z,72.16
2023-03-20T09:57:49.304Z,74.67
2023-03-20T10:00:20.277Z,72.30
2023-03-20T10:02:53.933Z,83.21
2023-03-20T10:05:27.386Z,74.40
2023-03-20T10:07:57.956Z,74.67
2023-03-20T10:10:36.265Z,78.87
2023-03-20T10:13:21.532Z,74.69
2023-03-20T10:15:56.688Z,80.42
2023-03-20T10:18:28.382Z,72.21
2023-03-20T10:21:03.218Z,78.09
2023-03-20T10:23:37.703Z,74.16
2023-03-20T10:26:11.684Z,75.67
2023-03-20T10:28:47.241Z,79.65
2023-03-20T10:31:32.856Z,72.79
2023-03-20T10:34:18.876Z,77.93
2023-03-20T10:36:59.005Z,72.61
2023-03-20T10:39:41.916Z,74.74
2023-03-20T10:42:19.894Z,87.97
2023-03-20T10:44:54.866Z,76.13
2023-03-20T10:47:27.410Z,79.45
2023-03-20T10:49:59.353Z,72.56
2023-03-20T10:52:32.389Z,77.22
2023-03-20T10:55:05.133Z,75.19
2023-03-20T10:57:38.372Z,79.36
2023-03-20T11:00:12.988Z,73.96
2023-03-20T11:02:41.694Z,72.02
2023-03-20T11:05:23.970Z,75.61
2023-03-20T11:08:03.413Z,79.29
2023-03-20T11:10:35.284Z,79.46
2023-03-20T11:13:16.777Z,80.56
2023-03-20T11:15:45.646Z,82.10
2023-03-20T11:18:16.649Z,84.96
2023-03-20T11:20:48.790Z,77.71
2023-03-20T11:23:21.317Z,82.44
2023-03-20T11:25:54.241Z,81.91
2023-03-20T11:28:31.514Z,83.28
2023-03-20T11:31:04.843Z,79.53
2023-03-20T11:33:38.819Z,80.44
2023-03-20T11:36:21.479Z,78.33
2023-03-20T11:38:52.576Z,90.81
2023-03-20T11:41:25.316Z,76.96
2023-03-20T11:43:54.166Z,80.58
2023-03-20T11:46:24.248Z,74.59
2023-03-20T11:49:08.078Z,80.37
2023-03-20T11:51:38.224Z,90.92
2023-03-20T11:54:16.984Z,83.07
2023-03-20T11:56:55.190Z,87.37
2023-03-20T11:59:26.918Z,83.08
2023-03-20T12:01:58.002Z,81.59
2023-03-20T12:04:30.766Z,78.25
2023-03-20T12:07:04.005Z,80.69
2023-03-20T12:09:53.936Z,87.91
2023-03-20T12:12:34.852Z,91.92
2023-03-20T12:15:09.983Z,85.19
2023-03-20T12:17:47.516Z,91.26
2023-03-20T12:20:29.043Z,93.90
2023-03-20T12:23:07.753Z,93.42
2023-03-20T12:25:42.913Z,93.05
2023-03-20T12:28:18.955Z,91.83
2023-03-20T12:31:02.594Z,93.51
2023-03-20T12:33:42.141Z,90.54
2023-03-20T12:36:16.680Z,88.84
2023-03-20T12:38:46.690Z,91.29
2023-03-20T12:41:23.556Z,94.34
2023-03-20T12:44:20.647Z,87.77
2023-03-20T12:46:58.320Z,86.11
2023-03-20T12:49:37.804Z,90.01
2023-03-20T12:52:17.465Z,89.94
2023-03-20T12:55:13.314Z,95.21
2023-03-20T12:57:52.829Z,89.38
2023-03-20T13:00:32.083Z,86.78
2023-03-20T13:03:19.515Z,86.07
2023-03-20T13:05:53.353Z,85.54
2023-03-20T13:08:45.908Z,85.64
2023-03-20T13:11:22.011Z,91.37
2023-03-20T13:13:56.193Z,88.69
2023-03-20T13:16:35.720Z,87.89
2023-03-20T13:19:13.609Z,78.02
2023-03-20T13:21:49.705Z,88.56
2023-03-20T13:24:32.259Z,88.68
2023-03-20T13:27:08.459Z,88.87
2023-03-20T13:29:48.232Z,84.55
2023-03-20T13:32:26.832Z,80.15
2023-03-20T13:35:18.849Z,87.18
2023-03-20T13:37:52.047Z,87.08
2023-03-20T13:40:24.573Z,74.43
2023-03-20T13:42:58.992Z,79.50
2023-03-20T13:45:34.558Z,86.54
2023-03-20T13:48:16.555Z,76.76
2023-03-20T13:50:50.918Z,85.17
2023-03-20T13:53:30.408Z,86.18
2023-03-20T13:56:08.845Z,84.01
2023-03-20T13:58:59.052Z,82.83
2023-03-20T14:01:39.745Z,81.45
2023-03-20T14:04:16.079Z,80.43
2023-03-20T14:06:52.470Z,78.34
2023-03-20T14:09:29.571Z,80.61
2023-03-20T14:12:01.528Z,81.22
2023-03-20T14:14:31.737Z,84.69
2023-03-20T14:17:13.735Z,88.43
2023-03-20T14:19:42.595Z,84.29
2023-03-20T14:22:17.924Z,94.38
2023-03-20T14:24:55.174Z,82.95
2023-03-20T14:27:42.704Z,85.01
2023-03-20T14:30:39.376Z,90.61
2023-03-20T14:33:26.131Z,90.68
2023-03-20T14:36:20.949Z,81.68
2023-03-20T14:38:58.797Z,81.74
2023-03-20T14:41:36.636Z,85.12
2023-03-20T14:44:23.522Z,85.32
2023-03-20T14:46:58.932Z,89.57
2023-03-20T14:49:51.878Z,89.04
2023-03-20T14:52:36.143Z,87.49
2023-03-20T14:55:31.600Z,81.68
2023-03-20T14:58:04.011Z,87.19
2023-03-20T15:00:46.760Z,84.12
2023-03-20T15:03:17.776Z,80.87
2023-03-20T15:05:48.933Z,80.58
2023-03-20T15:08:24.536Z,84.67
2023-03-20T15:10:56.522Z,85.30
2023-03-20T15:13:26.832Z,89.58
2023-03-20T15:15:58.759Z,86.36
2023-03-20T15:18:29.333Z,81.39
2023-03-20T15:20:59.854Z,81.35
2023-03-20T15:23:29.227Z,82.75
2023-03-20T15:25:58.350Z,86.78
2023-03-20T15:28:29.122Z,83.93
2023-03-20T15:31:00.485Z,87.09
2023-03-20T15:33:33.832Z,90.94
2023-03-20T15:36:15.693Z,83.29
2023-03-20T15:38:47.700Z,90.39
2023-03-20T15:41:28.831Z,91.39
2023-03-20T15:44:15.071Z,90.08
2023-03-20T15:46:52.866Z,96.72
2023-03-20T15:49:23.038Z,97.96
2023-03-20T15:51:55.066Z,97.33
2023-03-20T15:54:24.801Z,100.00
2023-03-20T15:56:55.756Z,97.03
2023-03-20T15:59:28.033Z,97.37
2023-03-20T16:02:01.686Z,100.00
2023-03-20T16:04:31.217Z,98.64
2023-03-20T16:07:04.970Z,94.12
2023-03-20T16:09:44.200Z,96.58
2023-03-20T16:12:19.207Z,97.21
2023-03-20T16:14:50.380Z,99.36
2023-03-20T16:17:21.721Z,100.00
2023-03-20T16:19:51.380Z,97.72
2023-03-20T16:22:28.235Z,99.46
2023-03-20T16:25:01.806Z,100.00
2023-03-20T16:27:34.518Z,96.24
2023-03-20T16:30:09.994Z,91.75
2023-03-20T16:32:41.961Z,94.59
2023-03-20T16:35:20.044Z,97.23
2023-03-20T16:37:55.541Z,95.51
2023-03-20T16:40:32.638Z,97.17
2023-03-20T16:43:08.596Z,97.58
2023-03-20T16:45:38.944Z,94.22
2023-03-20T16:48:28.427Z,95.01
2023-03-20T16:51:00.998Z,92.88
2023-03-20T16:53:37.438Z,94.39
2023-03-20T16:59:28.348Z,85.53
2023-03-20T17:02:01.847Z,94.21
2023-03-20T17:04:35.645Z,91.40
2023-03-20T17:07:11.484Z,92.92
2023-03-20T17:09:56.168Z,91.26
2023-03-20T17:12:27.022Z,88.85
2023-03-20T17:14:56.328Z,87.15
2023-03-20T17:17:26.087Z,92.67
2023-03-20T17:19:55.166Z,86.94
2023-03-20T17:22:29.616Z,90.19
2023-03-20T17:25:00.729Z,92.50
2023-03-20T17:27:31.332Z,89.81
2023-03-20T17:30:00.605Z,90.08
2023-03-20T17:32:29.921Z,87.86
2023-03-20T17:34:59.723Z,85.45
2023-03-20T17:37:30.535Z,89.75
2023-03-20T17:40:01.084Z,88.20
2023-03-20T17:42:32.238Z,85.17
2023-03-20T17:45:02.274Z,86.38
2023-03-20T17:50:24.474Z,88.80
2023-03-20T17:52:57.463Z,92.13
2023-03-20T17:55:27.917Z,88.97
2023-03-20T17:57:57.033Z,84.77
2023-03-20T18:00:28.153Z,92.15
2023-03-20T18:02:57.029Z,84.69
2023-03-20T18:05:26.122Z,90.98
2023-03-20T18:07:58.251Z,87.20
2023-03-20T18:10:32.896Z,89.18
2023-03-20T18:13:02.345Z,87.44
2023-03-20T18:15:35.751Z,81.28
2023-03-20T18:18:09.677Z,87.05
2023-03-20T18:20:41.611Z,87.07
2023-03-20T18:23:12.101Z,86.66
2023-03-20T18:25:44.570Z,78.76
2023-03-20T18:28:23.097Z,87.96
2023-03-20T18:30:53.124Z,88.50
2023-03-20T18:33:27.199Z,83.15
2023-03-20T18:35:58.198Z,82.19
2023-03-20T18:38:31.106Z,88.75
2023-03-20T18:41:54.172Z,88.76
2023-03-20T18:44:30.403Z,81.59
2023-03-20T18:47:01.146Z,94.01
2023-03-20T18:49:31.621Z,89.75
2023-03-20T18:52:03.847Z,81.91
2023-03-20T18:54:32.987Z,91.14
2023-03-20T18:57:02.462Z,88.62
2023-03-20T18:59:33.573Z,87.34
2023-03-20T19:02:03.219Z,86.08
2023-03-20T19:04:35.359Z,90.42
2023-03-20T19:07:10.502Z,87.70
2023-03-20T19:09:47.891Z,89.94
2023-03-20T19:14:53.432Z,84.34
2023-03-20T19:17:21.989Z,90.53
2023-03-20T19:19:50.565Z,91.24
2023-03-20T19:22:29.301Z,89.71
2023-03-20T19:24:58.024Z,92.57
2023-03-20T19:27:27.073Z,88.46
2023-03-20T19:29:57.501Z,86.47
2023-03-20T19:32:26.028Z,88.49
2023-03-20T19:35:40.893Z,92.46
2023-03-20T19:37:43.082Z,93.74
2023-03-20T19:40:26.414Z,89.09
2023-03-20T19:43:02.572Z,88.33
2023-03-20T19:45:35.749Z,88.26
2023-03-20T19:48:16.452Z,88.85
2023-03-20T19:50:46.849Z,86.63
2023-03-20T19:53:17.892Z,88.69
2023-03-20T19:55:46.779Z,93.31
2023-03-20T19:58:15.657Z,88.45
2023-03-20T20:00:58.884Z,90.30
2023-03-20T20:03:28.826Z,91.72
2023-03-20T20:05:57.654Z,87.67
2023-03-20T20:08:42.453Z,89.47
2023-03-20T20:11:15.096Z,88.08
2023-03-20T20:16:36.542Z,88.79
2023-03-20T20:19:05.984Z,86.69
2023-03-20T20:24:23.325Z,88.60
2023-03-20T20:26:59.978Z,87.20
2023-03-20T20:29:35.992Z,88.79
2023-03-20T20:32:06.374Z,89.60
2023-03-20T20:40:14.582Z,85.47
2023-03-20T20:42:43.664Z,85.41
2023-03-20T20:45:13.776Z,86.42
2023-03-20T20:47:44.970Z,88.33
2023-03-20T20:50:14.722Z,86.70
2023-03-20T20:52:43.807Z,88.50
2023-03-20T20:55:22.542Z,82.54
2023-03-20T20:57:52.666Z,90.88
2023-03-20T21:00:27.521Z,89.38
2023-03-20T21:03:01.517Z,83.73
2023-03-20T21:05:31.162Z,88.75
2023-03-20T21:07:59.680Z,91.57
2023-03-20T21:10:28.606Z,85.79
2023-03-20T21:12:59.769Z,84.42
2023-03-20T21:15:28.723Z,90.49
2023-03-20T21:18:01.598Z,94.67
2023-03-20T21:20:32.002Z,96.78
2023-03-20T21:23:00.753Z,100.00
2023-03-20T21:25:39.577Z,98.47
2023-03-20T21:28:09.592Z,99.97
2023-03-20T21:30:44.171Z,100.00
2023-03-20T21:33:19.748Z,96.46
2023-03-20T21:35:51.298Z,95.19
2023-03-20T21:41:11.000Z,98.54
2023-03-20T21:43:39.803Z,94.08
2023-03-20T21:55:12.843Z,96.21
2023-03-20T22:01:03.218Z,96.04
2023-03-20T22:03:10.554Z,92.50
2023-03-20T22:09:42.844Z,86.59
2023-03-20T22:12:01.752Z,90.20
2023-03-20T22:17:41.494Z,88.73
2023-03-20T22:26:15.573Z,91.38
2023-03-20T22:28:56.756Z,91.48
2023-03-20T22:34:38.852Z,94.61
2023-03-20T22:37:31.676Z,94.54
2023-03-20T22:43:07.085Z,90.59
2023-03-20T22:45:13.028Z,99.29
2023-03-20T22:47:41.841Z,97.78
2023-03-20T22:50:11.617Z,90.85
2023-03-20T22:52:49.235Z,90.73
2023-03-20T22:55:19.134Z,91.11
2023-03-20T22:58:03.802Z,91.05
2023-03-20T23:00:35.011Z,87.97
2023-03-20T23:03:19.470Z,89.19
2023-03-20T23:05:51.734Z,88.01
2023-03-20T23:08:20.783Z,87.53
2023-03-20T23:10:51.747Z,88.09
2023-03-20T23:13:22.522Z,90.25
2023-03-20T23:15:51.758Z,89.75
2023-03-20T23:18:20.940Z,88.99
2023-03-20T23:20:49.648Z,88.38
2023-03-20T23:23:18.482Z,89.24
2023-03-20T23:25:47.236Z,87.71
2023-03-20T23:28:15.919Z,88.88
2023-03-20T23:30:54.116Z,86.80
2023-03-20T23:33:28.300Z,89.17
2023-03-20T23:36:14.075Z,90.03
2023-03-20T23:38:46.704Z,88.34
2023-03-20T23:41:15.821Z,83.94
2023-03-20T23:43:44.399Z,87.34
2023-03-20T23:46:14.612Z,88.26
2023-03-20T23:48:43.269Z,89.27
2023-03-20T23:51:11.897Z,87.53
2023-03-20T23:53:40.773Z,88.90
2023-03-20T23:56:11.396Z,90.67
2023-03-20T23:58:47.537Z,90.07
